createdAt,value
2018-12-29T00:06:05.858Z,10.22
2018-12-29T00:09:14.264Z,9.99
2018-12-29T00:12:03.502Z,10.16
2018-12-29T00:14:55.181Z,10.13
2018-12-29T00:18:25.830Z,10.12
2018-12-29T00:21:15.122Z,10.23
2018-12-29T00:24:04.549Z,10.32
2018-12-29T00:27:13.008Z,10.18
2018-12-29T00:30:02.373Z,10.27
2018-12-29T00:32:51.635Z,10.31
2018-12-29T00:35:40.983Z,10.24
2018-12-29T00:38:30.269Z,10.16
2018-12-29T00:41:19.791Z,10.06
2018-12-29T00:43:49.708Z,10.06
2018-12-29T00:46:39.276Z,9.92
2018-12-29T00:49:28.704Z,10.21
2018-12-29T00:52:17.927Z,9.91
2018-12-29T00:55:26.497Z,9.84
2018-12-29T01:01:44.622Z,9.78
2018-12-29T01:04:33.972Z,9.60
2018-12-29T01:07:23.297Z,9.34
2018-12-29T01:10:12.564Z,9.30
2018-12-29T01:13:01.757Z,9.53
2018-12-29T01:15:50.989Z,9.69
2018-12-29T01:18:32.993Z,9.68
2018-12-29T01:21:22.295Z,9.87
2018-12-29T01:24:11.735Z,9.48
2018-12-29T01:27:00.992Z,9.40
2018-12-29T01:29:50.144Z,9.50
2018-12-29T01:32:39.328Z,9.50
2018-12-29T01:35:28.507Z,9.70
2018-12-29T01:38:17.718Z,9.52
2018-12-29T01:41:06.907Z,9.10
2018-12-29T01:43:56.177Z,9.36
2018-12-29T01:46:45.481Z,9.47
2018-12-29T01:49:34.713Z,9.38
2018-12-29T01:52:23.951Z,9.60
2018-12-29T01:55:13.246Z,9.59
2018-12-29T01:58:02.518Z,9.36
2018-12-29T02:00:51.873Z,9.59
2018-12-29T02:03:41.467Z,9.26
2018-12-29T02:06:30.658Z,9.55
2018-12-29T02:09:19.935Z,9.66
2018-12-29T02:12:09.094Z,9.68
2018-12-29T02:14:58.293Z,9.33
2018-12-29T02:17:47.544Z,9.20
2018-12-29T02:20:36.724Z,9.22
2018-12-29T02:23:26.248Z,9.60
2018-12-29T02:25:56.186Z,9.36
2018-12-29T02:28:26.095Z,9.70
2018-12-29T02:30:55.995Z,9.50
2018-12-29T02:33:25.976Z,9.26
2018-12-29T02:35:56.093Z,9.19
2018-12-29T02:38:26.235Z,9.36
2018-12-29T02:40:56.370Z,9.31
2018-12-29T02:43:45.551Z,9.25
2018-12-29T02:46:34.991Z,9.07
2018-12-29T02:49:04.889Z,9.70
2018-12-29T02:51:34.805Z,9.79
2018-12-29T02:54:04.692Z,9.41
2018-12-29T02:56:34.706Z,9.24
2018-12-29T02:59:04.607Z,9.63
2018-12-29T03:01:34.578Z,9.60
2018-12-29T03:04:04.465Z,9.25
2018-12-29T03:06:34.595Z,9.43
2018-12-29T03:09:05.437Z,9.50
2018-12-29T03:11:35.442Z,9.39
2018-12-29T03:14:05.564Z,9.48
2018-12-29T03:16:35.712Z,9.55
2018-12-29T03:19:05.659Z,9.21
2018-12-29T03:21:35.806Z,9.53
2018-12-29T03:24:05.710Z,9.65
2018-12-29T03:26:35.587Z,9.53
2018-12-29T03:29:05.554Z,9.37
2018-12-29T03:31:54.745Z,9.45
2018-12-29T03:34:43.914Z,9.50
2018-12-29T03:37:33.428Z,9.13
2018-12-29T03:40:22.593Z,9.37
2018-12-29T03:43:31.011Z,9.30
2018-12-29T03:46:20.166Z,9.57
2018-12-29T03:49:09.505Z,9.32
2018-12-29T03:51:58.656Z,9.60
2018-12-29T03:54:47.813Z,9.54
2018-12-29T03:57:36.966Z,9.74
2018-12-29T04:00:26.132Z,9.92
2018-12-29T04:03:15.298Z,9.81
2018-12-29T04:06:04.459Z,9.70
2018-12-29T04:09:32.060Z,9.64
2018-12-29T04:12:24.422Z,9.29
2018-12-29T04:14:54.333Z,9.52
2018-12-29T04:17:24.258Z,9.84
2018-12-29T04:19:54.172Z,9.88
2018-12-29T04:22:24.079Z,9.92
2018-12-29T04:24:54.174Z,9.37
2018-12-29T04:27:43.566Z,9.32
2018-12-29T04:30:32.717Z,9.61
2018-12-29T04:33:21.913Z,9.57
2018-12-29T04:36:11.074Z,9.53
2018-12-29T04:39:00.241Z,9.30
2018-12-29T04:41:49.417Z,9.51
2018-12-29T04:44:38.588Z,9.56
2018-12-29T04:47:27.932Z,9.27
2018-12-29T04:50:17.096Z,9.54
2018-12-29T04:53:06.309Z,9.32
2018-12-29T04:55:55.463Z,9.55
2018-12-29T04:58:44.873Z,9.15
2018-12-29T05:01:34.127Z,9.33
2018-12-29T05:04:23.300Z,9.19
2018-12-29T05:07:12.490Z,8.96
2018-12-29T05:10:01.679Z,9.13
2018-12-29T05:12:50.873Z,9.15
2018-12-29T05:15:40.280Z,9.54
2018-12-29T05:18:22.720Z,9.07
2018-12-29T05:21:12.252Z,8.72
2018-12-29T05:24:01.499Z,9.00
2018-12-29T05:26:50.616Z,8.96
2018-12-29T05:29:40.000Z,9.15
2018-12-29T05:32:29.436Z,9.17
2018-12-29T05:35:18.929Z,9.28
2018-12-29T05:41:22.825Z,9.34
2018-12-29T05:44:12.016Z,9.62
2018-12-29T05:47:01.619Z,9.49
2018-12-29T05:49:50.809Z,9.09
2018-12-29T05:52:39.989Z,9.60
2018-12-29T05:55:29.189Z,9.44
2018-12-29T05:58:18.346Z,9.01
2018-12-29T06:04:02.359Z,9.42
2018-12-29T06:06:51.542Z,9.32
2018-12-29T06:12:35.151Z,9.04
2018-12-29T06:15:05.533Z,8.98
2018-12-29T06:17:55.079Z,9.03
2018-12-29T06:20:44.233Z,9.29
2018-12-29T06:23:33.401Z,9.54
2018-12-29T06:26:22.578Z,9.21
2018-12-29T06:29:11.735Z,9.34
2018-12-29T06:32:00.941Z,8.70
2018-12-29T06:37:58.492Z,9.01
2018-12-29T06:40:47.670Z,8.58
2018-12-29T06:43:43.933Z,9.07
2018-12-29T06:46:35.182Z,9.21
2018-12-29T06:49:23.989Z,8.80
2018-12-29T06:52:13.233Z,9.04
2018-12-29T06:55:02.479Z,8.88
2018-12-29T06:57:51.678Z,8.68
2018-12-29T07:00:40.825Z,8.99
2018-12-29T07:03:30.310Z,9.00
2018-12-29T07:06:19.517Z,9.52
2018-12-29T07:09:08.683Z,9.30
2018-12-29T07:11:57.958Z,9.05
2018-12-29T07:14:47.167Z,9.39
2018-12-29T07:17:36.648Z,9.37
2018-12-29T07:20:06.659Z,9.48
2018-12-29T07:22:36.638Z,9.63
2018-12-29T07:25:25.788Z,9.52
2018-12-29T07:28:14.961Z,9.39
2018-12-29T07:31:04.101Z,9.52
2018-12-29T07:33:53.623Z,9.57
2018-12-29T07:36:42.795Z,9.66
2018-12-29T07:45:21.974Z,9.68
2018-12-29T07:48:11.151Z,9.65
2018-12-29T07:51:00.648Z,9.79
2018-12-29T07:53:49.830Z,9.78
2018-12-29T07:56:39.284Z,9.63
2018-12-29T07:59:28.441Z,9.77
2018-12-29T08:02:17.590Z,9.75
2018-12-29T08:05:07.100Z,9.93
2018-12-29T08:07:56.277Z,9.77
2018-12-29T08:10:45.483Z,8.70
2018-12-29T08:13:35.109Z,9.61
2018-12-29T08:16:24.223Z,9.50
2018-12-29T08:19:06.260Z,9.66
2018-12-29T08:21:55.374Z,9.47
2018-12-29T08:24:44.560Z,9.11
2018-12-29T08:27:34.289Z,9.68
2018-12-29T08:30:23.456Z,9.72
2018-12-29T08:33:13.074Z,9.92
2018-12-29T08:36:02.507Z,9.66
2018-12-29T08:38:51.759Z,9.74
2018-12-29T08:44:49.985Z,9.78
2018-12-29T08:47:20.014Z,9.61
2018-12-29T08:50:13.272Z,9.72
2018-12-29T08:53:20.522Z,9.57
2018-12-29T08:56:09.716Z,9.45
2018-12-29T08:58:58.878Z,9.67
2018-12-29T09:01:48.061Z,9.70
2018-12-29T09:04:37.283Z,9.55
2018-12-29T09:07:26.461Z,9.87
2018-12-29T09:10:16.090Z,9.79
2018-12-29T09:13:06.102Z,9.21
2018-12-29T09:18:49.552Z,9.57
2018-12-29T09:21:34.167Z,9.90
2018-12-29T09:24:23.339Z,9.96
2018-12-29T09:27:12.785Z,9.77
2018-12-29T09:30:01.947Z,9.44
2018-12-29T09:32:51.558Z,9.77
2018-12-29T09:35:40.767Z,8.85
2018-12-29T09:38:30.003Z,9.45
2018-12-29T09:41:19.453Z,9.54
2018-12-29T09:44:27.686Z,10.08
2018-12-29T09:47:19.760Z,9.92
2018-12-29T09:50:08.187Z,10.02
2018-12-29T09:52:57.375Z,10.05
2018-12-29T09:55:46.598Z,9.95
2018-12-29T10:01:30.066Z,9.10
2018-12-29T10:04:19.269Z,9.89
2018-12-29T10:07:08.830Z,9.91
2018-12-29T10:09:58.152Z,10.06
2018-12-29T10:12:47.660Z,10.14
2018-12-29T10:15:36.958Z,9.78
2018-12-29T10:18:18.878Z,9.41
2018-12-29T10:21:08.436Z,10.05
2018-12-29T10:23:57.853Z,9.81
2018-12-29T10:26:47.710Z,10.09
2018-12-29T10:29:37.226Z,9.40
2018-12-29T10:32:26.642Z,10.17
2018-12-29T10:35:15.913Z,10.31
2018-12-29T10:38:05.351Z,10.00
2018-12-29T10:40:54.544Z,10.22
2018-12-29T10:47:00.202Z,9.84
2018-12-29T10:49:49.525Z,9.75
2018-12-29T10:52:39.121Z,9.53
2018-12-29T10:55:47.686Z,9.52
2018-12-29T10:58:56.147Z,9.44
2018-12-29T11:01:45.988Z,9.66
2018-12-29T11:04:35.354Z,9.37
2018-12-29T11:10:33.587Z,9.49
2018-12-29T11:13:23.041Z,9.99
2018-12-29T11:16:17.995Z,10.07
2018-12-29T11:18:48.561Z,10.00
2018-12-29T11:21:19.451Z,9.91
2018-12-29T11:23:50.515Z,9.78
2018-12-29T11:26:21.032Z,9.68
2018-12-29T11:28:52.083Z,9.68
2018-12-29T11:31:23.311Z,9.76
2018-12-29T11:33:53.971Z,9.84
2018-12-29T11:36:23.947Z,9.89
2018-12-29T11:38:53.924Z,10.23
2018-12-29T11:41:25.537Z,10.16
2018-12-29T11:43:58.263Z,9.87
2018-12-29T11:46:28.218Z,10.11
2018-12-29T11:48:58.354Z,10.14
2018-12-29T11:51:28.898Z,10.08
2018-12-29T11:53:58.911Z,10.14
2018-12-29T11:56:28.898Z,10.09
2018-12-29T11:58:58.814Z,9.99
2018-12-29T12:01:28.869Z,9.90
2018-12-29T12:03:59.189Z,10.25
2018-12-29T12:06:29.618Z,9.94
2018-12-29T12:09:00.171Z,10.09
2018-12-29T12:11:30.855Z,10.19
2018-12-29T12:14:01.261Z,10.11
2018-12-29T12:16:31.262Z,10.20
2018-12-29T12:19:01.328Z,10.18
2018-12-29T12:21:31.576Z,10.04
2018-12-29T12:24:01.940Z,10.08
2018-12-29T12:26:32.039Z,10.22
2018-12-29T12:29:02.082Z,10.23
2018-12-29T12:31:32.325Z,10.41
2018-12-29T12:34:02.705Z,10.28
2018-12-29T12:36:33.283Z,10.25
2018-12-29T12:39:22.925Z,9.89
2018-12-29T12:42:12.205Z,10.28
2018-12-29T12:45:01.689Z,9.86
2018-12-29T12:50:46.391Z,9.97
2018-12-29T12:53:35.642Z,9.71
2018-12-29T12:56:24.843Z,10.23
2018-12-29T12:59:14.128Z,10.56
2018-12-29T13:02:03.565Z,10.73
2018-12-29T13:04:53.129Z,10.46
2018-12-29T13:07:42.363Z,10.52
2018-12-29T13:10:31.598Z,10.72
2018-12-29T13:13:20.854Z,10.67
2018-12-29T13:19:11.224Z,10.69
2018-12-29T13:22:00.400Z,10.61
2018-12-29T13:24:49.688Z,10.34
2018-12-29T13:27:38.904Z,10.62
2018-12-29T13:30:28.518Z,10.86
2018-12-29T13:33:17.788Z,10.31
2018-12-29T13:39:17.060Z,10.15
2018-12-29T13:42:06.472Z,10.59
2018-12-29T13:44:55.678Z,10.55
2018-12-29T13:48:03.969Z,10.76
2018-12-29T13:50:53.356Z,10.94
2018-12-29T13:53:42.635Z,10.90
2018-12-29T13:56:32.289Z,10.87
2018-12-29T13:59:23.091Z,10.92
2018-12-29T14:02:12.344Z,11.02
2018-12-29T14:05:01.829Z,10.53
2018-12-29T14:07:51.048Z,9.93
2018-12-29T14:10:40.862Z,10.02
2018-12-29T14:13:10.864Z,10.07
2018-12-29T14:15:40.913Z,10.44
2018-12-29T14:18:11.039Z,9.40
2018-12-29T14:20:40.989Z,9.53
2018-12-29T14:23:10.923Z,10.37
2018-12-29T14:25:41.367Z,10.20
2018-12-29T14:28:11.277Z,10.22
2018-12-29T14:30:41.239Z,9.96
2018-12-29T14:33:11.508Z,10.33
2018-12-29T14:35:41.686Z,10.73
2018-12-29T14:38:31.053Z,10.97
2018-12-29T14:41:20.595Z,10.96
2018-12-29T14:43:50.481Z,10.68
2018-12-29T14:46:20.481Z,10.60
2018-12-29T14:48:50.391Z,10.30
2018-12-29T14:51:20.638Z,10.74
2018-12-29T14:53:50.669Z,10.44
2018-12-29T14:56:20.546Z,10.86
2018-12-29T14:58:50.604Z,10.72
2018-12-29T15:01:20.916Z,10.91
2018-12-29T15:03:50.829Z,10.95
2018-12-29T15:06:20.790Z,10.85
2018-12-29T15:08:50.829Z,10.83
2018-12-29T15:11:21.059Z,10.28
2018-12-29T15:13:50.970Z,10.74
2018-12-29T15:16:20.998Z,10.51
2018-12-29T15:18:51.185Z,9.86
2018-12-29T15:21:21.274Z,10.67
2018-12-29T15:23:51.528Z,10.94
2018-12-29T15:26:21.533Z,11.04
2018-12-29T15:28:52.223Z,11.08
2018-12-29T15:31:22.329Z,11.00
2018-12-29T15:33:52.569Z,10.98
2018-12-29T15:36:22.605Z,11.10
2018-12-29T15:38:52.760Z,11.09
2018-12-29T15:41:42.086Z,10.79
2018-12-29T15:44:31.411Z,11.11
2018-12-29T15:47:22.398Z,11.01
2018-12-29T15:50:13.328Z,11.04
2018-12-29T15:53:02.501Z,11.21
2018-12-29T15:55:52.046Z,11.11
2018-12-29T15:58:42.965Z,11.05
2018-12-29T16:01:33.872Z,11.23
2018-12-29T16:04:23.216Z,11.12
2018-12-29T16:07:12.523Z,11.14
2018-12-29T16:10:02.498Z,11.12
2018-12-29T16:12:51.699Z,11.05
2018-12-29T16:15:42.818Z,11.12
2018-12-29T16:18:32.013Z,10.84
2018-12-29T16:21:24.118Z,10.91
2018-12-29T16:24:13.350Z,11.04
2018-12-29T16:27:02.550Z,10.93
2018-12-29T16:29:51.771Z,10.78
2018-12-29T16:32:41.152Z,10.90
2018-12-29T16:35:30.486Z,11.24
2018-12-29T16:38:21.527Z,11.13
2018-12-29T16:41:10.710Z,11.11
2018-12-29T16:44:00.072Z,11.22
2018-12-29T16:46:49.340Z,11.09
2018-12-29T16:49:57.844Z,11.21
2018-12-29T16:52:49.017Z,11.22
2018-12-29T16:55:38.301Z,11.18
2018-12-29T16:58:29.376Z,11.07
2018-12-29T17:01:39.486Z,11.22
2018-12-29T17:04:29.070Z,10.95
2018-12-29T17:07:18.368Z,11.02
2018-12-29T17:10:26.739Z,10.70
2018-12-29T17:13:16.050Z,11.03
2018-12-29T17:16:05.519Z,10.29
2018-12-29T17:18:48.171Z,10.60
2018-12-29T17:21:37.388Z,10.50
2018-12-29T17:24:28.355Z,11.21
2018-12-29T17:27:19.334Z,11.08
2018-12-29T17:30:08.634Z,10.79
2018-12-29T17:32:58.423Z,11.07
2018-12-29T17:35:28.679Z,10.99
2018-12-29T17:37:58.906Z,11.28
2018-12-29T17:40:29.013Z,11.26
2018-12-29T17:42:59.263Z,9.81
2018-12-29T17:45:29.515Z,10.59
2018-12-29T17:48:00.500Z,10.70
2018-12-29T17:50:33.116Z,10.87
2018-12-29T17:53:22.748Z,10.89
2018-12-29T17:56:12.070Z,10.27
2018-12-29T17:59:01.511Z,10.56
2018-12-29T18:01:50.770Z,9.95
2018-12-29T18:04:40.029Z,10.75
2018-12-29T18:07:29.219Z,10.71
2018-12-29T18:10:18.514Z,10.84
2018-12-29T18:13:07.808Z,10.90
2018-12-29T18:15:56.992Z,10.91
2018-12-29T18:18:39.443Z,10.89
2018-12-29T18:21:28.666Z,10.71
2018-12-29T18:24:17.844Z,10.88
2018-12-29T18:27:07.145Z,10.31
2018-12-29T18:30:15.433Z,10.85
2018-12-29T18:33:04.598Z,10.70
2018-12-29T18:35:53.759Z,10.64
2018-12-29T18:38:43.024Z,10.51
2018-12-29T18:41:32.242Z,10.47
2018-12-29T18:44:21.609Z,10.52
2018-12-29T18:47:12.593Z,10.65
2018-12-29T18:50:02.116Z,10.61
2018-12-29T18:52:51.412Z,10.96
2018-12-29T18:55:44.252Z,10.86
2018-12-29T18:58:34.948Z,10.21
2018-12-29T19:04:19.746Z,10.28
2018-12-29T19:07:09.196Z,10.60
2018-12-29T19:09:58.853Z,10.37
2018-12-29T19:12:51.634Z,10.41
2018-12-29T19:15:40.881Z,10.13
2018-12-29T19:18:30.364Z,9.93
2018-12-29T19:21:21.240Z,10.70
2018-12-29T19:24:33.319Z,10.79
2018-12-29T19:27:03.385Z,10.86
2018-12-29T19:29:52.804Z,10.47
2018-12-29T19:35:38.007Z,10.35
2018-12-29T19:38:27.210Z,9.97
2018-12-29T19:41:18.083Z,9.93
2018-12-29T19:44:09.105Z,10.44
2018-12-29T19:47:00.205Z,10.07
2018-12-29T19:49:53.852Z,10.03
2018-12-29T19:52:42.308Z,9.82
2018-12-29T19:55:31.521Z,10.44
2018-12-29T19:58:20.777Z,10.09
2018-12-29T20:01:10.461Z,10.13
2018-12-29T20:03:59.704Z,10.18
2018-12-29T20:07:08.679Z,10.31
2018-12-29T20:09:57.929Z,10.25
2018-12-29T20:12:47.191Z,10.32
2018-12-29T20:15:36.774Z,10.27
2018-12-29T20:18:26.086Z,10.01
2018-12-29T20:21:15.322Z,10.10
2018-12-29T20:24:04.545Z,10.18
2018-12-29T20:26:54.205Z,10.03
2018-12-29T20:29:43.965Z,9.85
2018-12-29T20:32:58.924Z,10.05
2018-12-29T20:35:44.366Z,9.94
2018-12-29T20:38:35.513Z,10.16
2018-12-29T20:42:06.922Z,9.76
2018-12-29T20:44:56.171Z,9.92
2018-12-29T20:47:45.472Z,9.64
2018-12-29T20:50:34.870Z,9.65
2018-12-29T20:53:24.366Z,9.50
2018-12-29T20:56:13.568Z,9.78
2018-12-29T20:59:02.878Z,9.97
2018-12-29T21:01:52.242Z,9.91
2018-12-29T21:04:41.737Z,9.67
2018-12-29T21:10:39.169Z,9.79
2018-12-29T21:13:30.289Z,9.86
2018-12-29T21:16:19.615Z,9.63
2018-12-29T21:19:03.649Z,9.34
2018-12-29T21:21:52.926Z,9.82
2018-12-29T21:24:42.179Z,9.68
2018-12-29T21:31:00.547Z,9.76
2018-12-29T21:33:50.117Z,9.84
2018-12-29T21:36:39.475Z,9.55
2018-12-29T21:39:28.730Z,9.72
2018-12-29T21:42:18.014Z,9.88
2018-12-29T21:45:07.568Z,9.68
2018-12-29T21:47:56.863Z,9.77
2018-12-29T21:50:46.154Z,9.79
2018-12-29T21:53:35.463Z,9.56
2018-12-29T21:56:43.779Z,9.61
2018-12-29T21:59:33.081Z,9.39
2018-12-29T22:02:24.028Z,9.38
2018-12-29T22:05:13.310Z,9.60
2018-12-29T22:08:03.113Z,9.26
2018-12-29T22:10:52.418Z,9.08
2018-12-29T22:13:43.314Z,9.68
2018-12-29T22:16:32.531Z,9.86
2018-12-29T22:19:16.713Z,9.30
2018-12-29T22:22:05.906Z,9.52
2018-12-29T22:24:55.399Z,9.70
2018-12-29T22:27:44.608Z,9.53
2018-12-29T22:30:33.810Z,9.18
2018-12-29T22:33:23.004Z,9.44
2018-12-29T22:36:12.212Z,9.70
2018-12-29T22:39:01.473Z,9.12
2018-12-29T22:41:50.774Z,9.27
2018-12-29T22:44:39.998Z,9.69
2018-12-29T22:47:29.165Z,9.61
2018-12-29T22:50:18.433Z,7.68
2018-12-29T22:53:07.655Z,9.31
2018-12-29T22:55:37.645Z,9.27
2018-12-29T22:58:08.689Z,9.09
2018-12-29T23:00:43.409Z,9.67
2018-12-29T23:03:13.637Z,9.87
2018-12-29T23:05:43.527Z,9.44
2018-12-29T23:08:13.825Z,9.08
2018-12-29T23:10:43.959Z,9.71
2018-12-29T23:13:14.088Z,9.82
2018-12-29T23:16:03.291Z,9.91
2018-12-29T23:18:45.615Z,9.32
2018-12-29T23:21:34.814Z,9.48
2018-12-29T23:24:25.771Z,9.86
2018-12-29T23:27:15.210Z,9.77
2018-12-29T23:33:33.109Z,9.61
2018-12-29T23:36:22.301Z,9.73
2018-12-29T23:39:13.539Z,9.78
2018-12-29T23:41:45.333Z,8.61
2018-12-29T23:44:15.257Z,9.36
2018-12-29T23:47:23.503Z,9.47
2018-12-29T23:50:12.863Z,9.59
2018-12-29T23:53:04.164Z,9.57
2018-12-29T23:55:55.509Z,8.66
2018-12-29T23:58:44.765Z,8.77
